sensor_id;sensor_type;location;lat;lon;timestamp;temperature;humidity
10390;DHT22;5241;47.830;12.972;2024-03-25T00:02:07;4.30;99.90
10390;DHT22;5241;47.830;12.972;2024-03-25T00:04:33;4.20;99.90
10390;DHT22;5241;47.830;12.972;2024-03-25T00:06:59;4.30;99.90
10390;DHT22;5241;47.830;12.972;2024-03-25T00:09:24;4.40;99.90
10390;DHT22;5241;47.830;12.972;2024-03-25T00:11:50;4.40;99.90
10390;DHT22;5241;47.830;12.972;2024-03-25T00:14:22;4.40;99.90
10390;DHT22;5241;47.830;12.972;2024-03-25T00:16:49;4.60;99.90
10390;DHT22;5241;47.830;12.972;2024-03-25T00:19:14;4.70;99.90
10390;DHT22;5241;47.830;12.972;2024-03-25T00:21:40;4.60;99.90
10390;DHT22;5241;47.830;12.972;2024-03-25T00:24:07;4.60;99.90
10390;DHT22;5241;47.830;12.972;2024-03-25T00:26:33;4.60;99.90
10390;DHT22;5241;47.830;12.972;2024-03-25T00:28:58;4.60;99.90
10390;DHT22;5241;47.830;12.972;2024-03-25T00:31:24;4.70;99.90
10390;DHT22;5241;47.830;12.972;2024-03-25T00:33:49;4.70;99.90
10390;DHT22;5241;47.830;12.972;2024-03-25T00:36:15;4.70;99.90
10390;DHT22;5241;47.830;12.972;2024-03-25T00:38:41;4.80;99.90
10390;DHT22;5241;47.830;12.972;2024-03-25T00:41:06;4.80;99.90
10390;DHT22;5241;47.830;12.972;2024-03-25T00:43:32;4.80;99.90
10390;DHT22;5241;47.830;12.972;2024-03-25T00:45:57;4.90;99.90
10390;DHT22;5241;47.830;12.972;2024-03-25T00:48:23;4.90;99.90
10390;DHT22;5241;47.830;12.972;2024-03-25T00:50:49;4.90;99.90
10390;DHT22;5241;47.830;12.972;2024-03-25T00:53:14;4.90;99.90
10390;DHT22;5241;47.830;12.972;2024-03-25T00:55:40;4.80;99.90
10390;DHT22;5241;47.830;12.972;2024-03-25T00:58:06;4.70;99.90
10390;DHT22;5241;47.830;12.972;2024-03-25T01:00:32;4.60;99.90
10390;DHT22;5241;47.830;12.972;2024-03-25T01:02:57;4.60;99.90
10390;DHT22;5241;47.830;12.972;2024-03-25T01:05:23;4.60;99.90
10390;DHT22;5241;47.830;12.972;2024-03-25T01:07:49;4.60;99.90
10390;DHT22;5241;47.830;12.972;2024-03-25T01:10:15;4.60;99.90
10390;DHT22;5241;47.830;12.972;2024-03-25T01:12:41;4.60;99.90
10390;DHT22;5241;47.830;12.972;2024-03-25T01:15:07;4.60;99.90
10390;DHT22;5241;47.830;12.972;2024-03-25T01:17:35;4.70;99.90
10390;DHT22;5241;47.830;12.972;2024-03-25T01:20:01;4.70;99.90
10390;DHT22;5241;47.830;12.972;2024-03-25T01:22:26;4.70;99.90
10390;DHT22;5241;47.830;12.972;2024-03-25T01:24:52;4.70;99.90
10390;DHT22;5241;47.830;12.972;2024-03-25T01:27:17;4.70;99.90
10390;DHT22;5241;47.830;12.972;2024-03-25T01:29:43;4.60;99.90
10390;DHT22;5241;47.830;12.972;2024-03-25T01:32:08;4.40;99.90
10390;DHT22;5241;47.830;12.972;2024-03-25T01:34:34;4.40;99.90
10390;DHT22;5241;47.830;12.972;2024-03-25T01:37:00;4.20;99.90
10390;DHT22;5241;47.830;12.972;2024-03-25T01:39:25;4.10;99.90
10390;DHT22;5241;47.830;12.972;2024-03-25T01:41:51;4.10;99.90
10390;DHT22;5241;47.830;12.972;2024-03-25T01:44:16;4.00;99.90
10390;DHT22;5241;47.830;12.972;2024-03-25T01:46:42;4.00;99.90
10390;DHT22;5241;47.830;12.972;2024-03-25T01:49:08;4.00;99.90
10390;DHT22;5241;47.830;12.972;2024-03-25T01:51:35;4.00;99.90
10390;DHT22;5241;47.830;12.972;2024-03-25T01:54:02;3.90;99.90
10390;DHT22;5241;47.830;12.972;2024-03-25T01:56:31;3.90;99.90
10390;DHT22;5241;47.830;12.972;2024-03-25T01:58:57;4.00;99.90
10390;DHT22;5241;47.830;12.972;2024-03-25T02:01:22;3.90;99.90
10390;DHT22;5241;47.830;12.972;2024-03-25T02:03:48;3.90;99.90
10390;DHT22;5241;47.830;12.972;2024-03-25T02:06:17;3.90;99.90
10390;DHT22;5241;47.830;12.972;2024-03-25T02:08:43;3.70;99.90
10390;DHT22;5241;47.830;12.972;2024-03-25T02:11:10;3.70;99.90
10390;DHT22;5241;47.830;12.972;2024-03-25T02:13:38;3.70;99.90
10390;DHT22;5241;47.830;12.972;2024-03-25T02:16:04;3.70;99.90
10390;DHT22;5241;47.830;12.972;2024-03-25T02:18:30;3.70;99.90
10390;DHT22;5241;47.830;12.972;2024-03-25T02:20:56;3.70;99.90
10390;DHT22;5241;47.830;12.972;2024-03-25T02:23:22;3.60;99.90
10390;DHT22;5241;47.830;12.972;2024-03-25T02:25:51;3.70;99.90
10390;DHT22;5241;47.830;12.972;2024-03-25T02:28:17;3.70;99.90
10390;DHT22;5241;47.830;12.972;2024-03-25T02:30:43;3.80;99.90
10390;DHT22;5241;47.830;12.972;2024-03-25T02:33:09;3.60;99.90
10390;DHT22;5241;47.830;12.972;2024-03-25T02:35:34;3.70;99.90
10390;DHT22;5241;47.830;12.972;2024-03-25T02:38:00;3.70;99.90
10390;DHT22;5241;47.830;12.972;2024-03-25T02:40:26;3.70;99.90
10390;DHT22;5241;47.830;12.972;2024-03-25T02:42:52;3.60;99.90
10390;DHT22;5241;47.830;12.972;2024-03-25T02:45:18;3.60;99.90
10390;DHT22;5241;47.830;12.972;2024-03-25T02:47:45;3.70;99.90
10390;DHT22;5241;47.830;12.972;2024-03-25T02:50:10;3.70;99.90
10390;DHT22;5241;47.830;12.972;2024-03-25T02:52:36;3.70;99.90
10390;DHT22;5241;47.830;12.972;2024-03-25T02:55:02;3.70;99.90
10390;DHT22;5241;47.830;12.972;2024-03-25T02:57:27;3.60;99.90
10390;DHT22;5241;47.830;12.972;2024-03-25T02:59:53;3.60;99.90
10390;DHT22;5241;47.830;12.972;2024-03-25T03:02:18;3.60;99.90
10390;DHT22;5241;47.830;12.972;2024-03-25T03:04:44;3.50;99.90
10390;DHT22;5241;47.830;12.972;2024-03-25T03:07:09;3.60;99.90
10390;DHT22;5241;47.830;12.972;2024-03-25T03:09:36;3.60;99.90
10390;DHT22;5241;47.830;12.972;2024-03-25T03:12:01;3.70;99.90
10390;DHT22;5241;47.830;12.972;2024-03-25T03:14:27;3.60;99.90
10390;DHT22;5241;47.830;12.972;2024-03-25T03:16:52;3.60;99.90
10390;DHT22;5241;47.830;12.972;2024-03-25T03:19:20;3.60;99.90
10390;DHT22;5241;47.830;12.972;2024-03-25T03:21:46;3.60;99.90
10390;DHT22;5241;47.830;12.972;2024-03-25T03:24:11;3.70;99.90
10390;DHT22;5241;47.830;12.972;2024-03-25T03:26:38;3.70;99.90
10390;DHT22;5241;47.830;12.972;2024-03-25T03:29:03;3.70;99.90
10390;DHT22;5241;47.830;12.972;2024-03-25T03:31:29;3.70;99.90
10390;DHT22;5241;47.830;12.972;2024-03-25T03:33:55;3.60;99.90
10390;DHT22;5241;47.830;12.972;2024-03-25T03:36:22;3.60;99.90
10390;DHT22;5241;47.830;12.972;2024-03-25T03:38:50;3.50;99.90
10390;DHT22;5241;47.830;12.972;2024-03-25T03:41:16;3.60;99.90
10390;DHT22;5241;47.830;12.972;2024-03-25T03:43:41;3.50;99.90
10390;DHT22;5241;47.830;12.972;2024-03-25T03:46:07;3.50;99.90
10390;DHT22;5241;47.830;12.972;2024-03-25T03:48:32;3.50;99.90
10390;DHT22;5241;47.830;12.972;2024-03-25T03:50:58;3.50;99.90
10390;DHT22;5241;47.830;12.972;2024-03-25T03:53:24;3.60;99.90
10390;DHT22;5241;47.830;12.972;2024-03-25T03:55:54;3.50;99.90
10390;DHT22;5241;47.830;12.972;2024-03-25T03:58:19;3.60;99.90
10390;DHT22;5241;47.830;12.972;2024-03-25T04:00:45;3.60;99.90
10390;DHT22;5241;47.830;12.972;2024-03-25T04:03:10;3.50;99.90
10390;DHT22;5241;47.830;12.972;2024-03-25T04:05:36;3.50;99.90
10390;DHT22;5241;47.830;12.972;2024-03-25T04:08:01;3.50;99.90
10390;DHT22;5241;47.830;12.972;2024-03-25T04:10:27;3.60;99.90
10390;DHT22;5241;47.830;12.972;2024-03-25T04:12:52;3.60;99.90
10390;DHT22;5241;47.830;12.972;2024-03-25T04:15:18;3.60;99.90
10390;DHT22;5241;47.830;12.972;2024-03-25T04:17:44;3.60;99.90
10390;DHT22;5241;47.830;12.972;2024-03-25T04:20:14;3.60;99.90
10390;DHT22;5241;47.830;12.972;2024-03-25T04:22:46;3.50;99.90
10390;DHT22;5241;47.830;12.972;2024-03-25T04:25:13;3.50;99.90
10390;DHT22;5241;47.830;12.972;2024-03-25T04:27:40;3.50;99.90
10390;DHT22;5241;47.830;12.972;2024-03-25T04:30:09;3.60;99.90
10390;DHT22;5241;47.830;12.972;2024-03-25T04:32:37;3.50;99.90
10390;DHT22;5241;47.830;12.972;2024-03-25T04:35:03;3.50;99.90
10390;DHT22;5241;47.830;12.972;2024-03-25T04:37:29;3.60;99.90
10390;DHT22;5241;47.830;12.972;2024-03-25T04:39:55;3.60;99.90
10390;DHT22;5241;47.830;12.972;2024-03-25T04:42:22;3.60;99.90
10390;DHT22;5241;47.830;12.972;2024-03-25T04:44:48;3.60;99.90
10390;DHT22;5241;47.830;12.972;2024-03-25T04:47:13;3.60;99.90
10390;DHT22;5241;47.830;12.972;2024-03-25T04:49:41;3.70;99.90
10390;DHT22;5241;47.830;12.972;2024-03-25T04:52:06;3.70;99.90
10390;DHT22;5241;47.830;12.972;2024-03-25T04:54:32;3.70;99.90
10390;DHT22;5241;47.830;12.972;2024-03-25T04:56:57;3.60;99.90
10390;DHT22;5241;47.830;12.972;2024-03-25T04:59:23;3.60;99.90
10390;DHT22;5241;47.830;12.972;2024-03-25T05:01:49;3.60;99.90
10390;DHT22;5241;47.830;12.972;2024-03-25T05:04:14;3.60;99.90
10390;DHT22;5241;47.830;12.972;2024-03-25T05:06:40;3.60;99.90
10390;DHT22;5241;47.830;12.972;2024-03-25T05:09:05;3.60;99.90
10390;DHT22;5241;47.830;12.972;2024-03-25T05:11:34;3.60;99.90
10390;DHT22;5241;47.830;12.972;2024-03-25T05:13:59;3.70;99.90
10390;DHT22;5241;47.830;12.972;2024-03-25T05:16:25;3.70;99.90
10390;DHT22;5241;47.830;12.972;2024-03-25T05:18:50;3.60;99.90
10390;DHT22;5241;47.830;12.972;2024-03-25T05:21:16;3.70;99.90
10390;DHT22;5241;47.830;12.972;2024-03-25T05:23:41;3.60;99.90
10390;DHT22;5241;47.830;12.972;2024-03-25T05:26:07;3.60;99.90
10390;DHT22;5241;47.830;12.972;2024-03-25T05:28:33;3.60;99.90
10390;DHT22;5241;47.830;12.972;2024-03-25T05:31:06;3.50;99.90
10390;DHT22;5241;47.830;12.972;2024-03-25T05:33:31;3.60;99.90
10390;DHT22;5241;47.830;12.972;2024-03-25T05:35:58;3.50;99.90
10390;DHT22;5241;47.830;12.972;2024-03-25T05:38:24;3.50;99.90
10390;DHT22;5241;47.830;12.972;2024-03-25T05:40:49;3.60;99.90
10390;DHT22;5241;47.830;12.972;2024-03-25T05:43:15;3.60;99.90
10390;DHT22;5241;47.830;12.972;2024-03-25T05:45:40;3.70;99.90
10390;DHT22;5241;47.830;12.972;2024-03-25T05:48:06;3.70;99.90
10390;DHT22;5241;47.830;12.972;2024-03-25T05:50:32;3.70;99.90
10390;DHT22;5241;47.830;12.972;2024-03-25T05:52:57;3.80;99.90
10390;DHT22;5241;47.830;12.972;2024-03-25T05:55:23;3.70;99.90
10390;DHT22;5241;47.830;12.972;2024-03-25T05:57:48;3.80;99.90
10390;DHT22;5241;47.830;12.972;2024-03-25T06:03:36;3.80;99.90
10390;DHT22;5241;47.830;12.972;2024-03-25T06:06:01;3.80;99.90
10390;DHT22;5241;47.830;12.972;2024-03-25T06:08:27;3.80;99.90
10390;DHT22;5241;47.830;12.972;2024-03-25T06:10:54;3.80;99.90
10390;DHT22;5241;47.830;12.972;2024-03-25T06:13:20;3.80;99.90
10390;DHT22;5241;47.830;12.972;2024-03-25T06:15:46;3.80;99.90
10390;DHT22;5241;47.830;12.972;2024-03-25T06:18:12;3.90;99.90
10390;DHT22;5241;47.830;12.972;2024-03-25T06:20:38;3.90;99.90
10390;DHT22;5241;47.830;12.972;2024-03-25T06:23:04;4.00;99.90
10390;DHT22;5241;47.830;12.972;2024-03-25T06:25:30;4.00;99.90
10390;DHT22;5241;47.830;12.972;2024-03-25T06:27:55;4.00;99.90
10390;DHT22;5241;47.830;12.972;2024-03-25T06:30:21;4.10;99.90
10390;DHT22;5241;47.830;12.972;2024-03-25T06:33:05;4.10;99.90
10390;DHT22;5241;47.830;12.972;2024-03-25T06:35:49;4.10;99.90
10390;DHT22;5241;47.830;12.972;2024-03-25T06:38:15;4.20;99.90
10390;DHT22;5241;47.830;12.972;2024-03-25T06:40:40;4.30;99.90
10390;DHT22;5241;47.830;12.972;2024-03-25T06:43:06;4.40;99.90
10390;DHT22;5241;47.830;12.972;2024-03-25T06:45:31;4.40;99.90
10390;DHT22;5241;47.830;12.972;2024-03-25T06:47:57;4.50;99.90
10390;DHT22;5241;47.830;12.972;2024-03-25T06:50:23;4.60;99.90
10390;DHT22;5241;47.830;12.972;2024-03-25T06:52:48;4.80;99.90
10390;DHT22;5241;47.830;12.972;2024-03-25T06:55:14;4.80;99.90
10390;DHT22;5241;47.830;12.972;2024-03-25T06:57:40;4.90;99.90
10390;DHT22;5241;47.830;12.972;2024-03-25T07:00:06;5.00;99.90
10390;DHT22;5241;47.830;12.972;2024-03-25T07:02:36;5.10;99.90
10390;DHT22;5241;47.830;12.972;2024-03-25T07:05:01;5.10;99.90
10390;DHT22;5241;47.830;12.972;2024-03-25T07:07:27;5.00;99.90
10390;DHT22;5241;47.830;12.972;2024-03-25T07:09:52;5.00;99.90
10390;DHT22;5241;47.830;12.972;2024-03-25T07:12:19;5.00;99.90
10390;DHT22;5241;47.830;12.972;2024-03-25T07:14:45;5.10;99.90
10390;DHT22;5241;47.830;12.972;2024-03-25T07:17:11;5.00;99.90
10390;DHT22;5241;47.830;12.972;2024-03-25T07:19:36;5.00;99.90
10390;DHT22;5241;47.830;12.972;2024-03-25T07:22:02;5.10;99.90
10390;DHT22;5241;47.830;12.972;2024-03-25T07:24:27;5.20;99.90
10390;DHT22;5241;47.830;12.972;2024-03-25T07:26:53;5.20;99.90
10390;DHT22;5241;47.830;12.972;2024-03-25T07:29:19;5.10;99.90
10390;DHT22;5241;47.830;12.972;2024-03-25T07:31:44;5.10;99.90
10390;DHT22;5241;47.830;12.972;2024-03-25T07:34:10;5.00;99.90
10390;DHT22;5241;47.830;12.972;2024-03-25T07:36:37;4.80;99.90
10390;DHT22;5241;47.830;12.972;2024-03-25T07:39:04;4.90;99.90
10390;DHT22;5241;47.830;12.972;2024-03-25T07:41:31;5.00;99.90
10390;DHT22;5241;47.830;12.972;2024-03-25T07:43:56;5.20;99.90
10390;DHT22;5241;47.830;12.972;2024-03-25T07:46:22;5.50;99.90
10390;DHT22;5241;47.830;12.972;2024-03-25T07:48:47;5.80;99.90
10390;DHT22;5241;47.830;12.972;2024-03-25T07:51:13;6.00;99.90
10390;DHT22;5241;47.830;12.972;2024-03-25T07:53:38;6.10;99.90
10390;DHT22;5241;47.830;12.972;2024-03-25T07:56:04;6.10;99.90
10390;DHT22;5241;47.830;12.972;2024-03-25T07:58:30;6.30;99.90
10390;DHT22;5241;47.830;12.972;2024-03-25T08:00:56;6.50;99.90
10390;DHT22;5241;47.830;12.972;2024-03-25T08:03:22;6.70;99.90
10390;DHT22;5241;47.830;12.972;2024-03-25T08:05:49;7.10;99.90
10390;DHT22;5241;47.830;12.972;2024-03-25T08:08:14;7.20;99.90
10390;DHT22;5241;47.830;12.972;2024-03-25T08:10:39;7.30;99.90
10390;DHT22;5241;47.830;12.972;2024-03-25T08:13:05;7.50;99.90
10390;DHT22;5241;47.830;12.972;2024-03-25T08:15:30;7.80;99.90
10390;DHT22;5241;47.830;12.972;2024-03-25T08:17:56;8.30;99.90
10390;DHT22;5241;47.830;12.972;2024-03-25T08:20:21;8.40;99.90
10390;DHT22;5241;47.830;12.972;2024-03-25T08:22:48;8.40;99.90
10390;DHT22;5241;47.830;12.972;2024-03-25T08:25:14;8.10;99.90
10390;DHT22;5241;47.830;12.972;2024-03-25T08:27:40;8.00;99.90
10390;DHT22;5241;47.830;12.972;2024-03-25T08:30:05;7.60;99.90
10390;DHT22;5241;47.830;12.972;2024-03-25T08:32:32;7.40;99.90
10390;DHT22;5241;47.830;12.972;2024-03-25T08:34:58;7.20;99.90
10390;DHT22;5241;47.830;12.972;2024-03-25T08:37:24;7.10;99.90
10390;DHT22;5241;47.830;12.972;2024-03-25T08:39:49;7.10;99.90
10390;DHT22;5241;47.830;12.972;2024-03-25T08:42:15;7.00;99.90
10390;DHT22;5241;47.830;12.972;2024-03-25T08:44:40;7.00;99.90
10390;DHT22;5241;47.830;12.972;2024-03-25T08:47:06;7.00;99.90
10390;DHT22;5241;47.830;12.972;2024-03-25T08:49:31;7.10;99.90
10390;DHT22;5241;47.830;12.972;2024-03-25T08:51:57;7.00;99.90
10390;DHT22;5241;47.830;12.972;2024-03-25T08:54:22;7.10;99.90
10390;DHT22;5241;47.830;12.972;2024-03-25T08:56:48;7.10;99.90
10390;DHT22;5241;47.830;12.972;2024-03-25T08:59:13;7.20;99.90
10390;DHT22;5241;47.830;12.972;2024-03-25T09:01:39;7.70;99.90
10390;DHT22;5241;47.830;12.972;2024-03-25T09:04:04;8.60;99.90
10390;DHT22;5241;47.830;12.972;2024-03-25T09:06:30;9.50;99.90
10390;DHT22;5241;47.830;12.972;2024-03-25T09:08:55;10.00;99.90
10390;DHT22;5241;47.830;12.972;2024-03-25T09:11:39;11.10;99.90
10390;DHT22;5241;47.830;12.972;2024-03-25T09:14:05;12.00;99.90
10390;DHT22;5241;47.830;12.972;2024-03-25T09:16:32;11.10;99.90
10390;DHT22;5241;47.830;12.972;2024-03-25T09:18:58;10.30;99.90
10390;DHT22;5241;47.830;12.972;2024-03-25T09:21:23;10.30;99.90
10390;DHT22;5241;47.830;12.972;2024-03-25T09:23:50;9.70;99.90
10390;DHT22;5241;47.830;12.972;2024-03-25T09:26:15;9.40;99.90
10390;DHT22;5241;47.830;12.972;2024-03-25T09:28:41;9.00;99.90
10390;DHT22;5241;47.830;12.972;2024-03-25T09:31:06;9.10;99.90
10390;DHT22;5241;47.830;12.972;2024-03-25T09:33:32;8.40;99.90
10390;DHT22;5241;47.830;12.972;2024-03-25T09:35:58;8.50;99.90
10390;DHT22;5241;47.830;12.972;2024-03-25T09:38:24;9.20;99.90
10390;DHT22;5241;47.830;12.972;2024-03-25T09:40:52;10.00;99.90
10390;DHT22;5241;47.830;12.972;2024-03-25T09:43:25;10.30;99.90
10390;DHT22;5241;47.830;12.972;2024-03-25T09:45:54;11.20;99.90
10390;DHT22;5241;47.830;12.972;2024-03-25T09:48:21;11.30;99.90
10390;DHT22;5241;47.830;12.972;2024-03-25T09:50:47;11.30;97.60
10390;DHT22;5241;47.830;12.972;2024-03-25T09:53:14;11.30;99.10
10390;DHT22;5241;47.830;12.972;2024-03-25T09:55:40;12.00;98.80
10390;DHT22;5241;47.830;12.972;2024-03-25T09:58:05;11.60;98.90
10390;DHT22;5241;47.830;12.972;2024-03-25T10:00:31;11.10;99.20
10390;DHT22;5241;47.830;12.972;2024-03-25T10:02:57;10.50;99.40
10390;DHT22;5241;47.830;12.972;2024-03-25T10:05:22;10.50;99.60
10390;DHT22;5241;47.830;12.972;2024-03-25T10:07:48;10.60;99.90
10390;DHT22;5241;47.830;12.972;2024-03-25T10:10:19;10.80;99.70
10390;DHT22;5241;47.830;12.972;2024-03-25T10:12:45;10.30;99.70
10390;DHT22;5241;47.830;12.972;2024-03-25T10:15:18;10.40;97.40
10390;DHT22;5241;47.830;12.972;2024-03-25T10:17:44;10.70;98.10
10390;DHT22;5241;47.830;12.972;2024-03-25T10:20:16;11.50;95.90
10390;DHT22;5241;47.830;12.972;2024-03-25T10:22:45;11.20;97.30
10390;DHT22;5241;47.830;12.972;2024-03-25T10:25:25;11.00;95.40
10390;DHT22;5241;47.830;12.972;2024-03-25T10:27:58;10.70;96.10
10390;DHT22;5241;47.830;12.972;2024-03-25T10:30:24;12.20;95.50
10390;DHT22;5241;47.830;12.972;2024-03-25T10:33:06;12.70;93.70
10390;DHT22;5241;47.830;12.972;2024-03-25T10:35:33;11.90;93.50
10390;DHT22;5241;47.830;12.972;2024-03-25T10:38:00;11.20;93.10
10390;DHT22;5241;47.830;12.972;2024-03-25T10:40:28;12.10;94.40
10390;DHT22;5241;47.830;12.972;2024-03-25T10:43:02;12.10;93.60
10390;DHT22;5241;47.830;12.972;2024-03-25T10:45:31;12.90;91.50
10390;DHT22;5241;47.830;12.972;2024-03-25T10:47:58;13.30;90.70
10390;DHT22;5241;47.830;12.972;2024-03-25T10:50:29;14.10;86.80
10390;DHT22;5241;47.830;12.972;2024-03-25T10:52:57;13.90;88.90
10390;DHT22;5241;47.830;12.972;2024-03-25T10:55:23;14.70;82.60
10390;DHT22;5241;47.830;12.972;2024-03-25T10:57:50;16.10;81.10
10390;DHT22;5241;47.830;12.972;2024-03-25T11:00:17;17.20;74.90
10390;DHT22;5241;47.830;12.972;2024-03-25T11:02:45;16.70;73.50
10390;DHT22;5241;47.830;12.972;2024-03-25T11:05:12;15.80;75.50
10390;DHT22;5241;47.830;12.972;2024-03-25T11:07:37;16.30;68.80
10390;DHT22;5241;47.830;12.972;2024-03-25T11:10:06;15.80;73.40
10390;DHT22;5241;47.830;12.972;2024-03-25T11:12:36;17.50;71.50
10390;DHT22;5241;47.830;12.972;2024-03-25T11:15:03;18.70;66.80
10390;DHT22;5241;47.830;12.972;2024-03-25T11:17:30;18.10;61.50
10390;DHT22;5241;47.830;12.972;2024-03-25T11:20:17;17.30;65.60
10390;DHT22;5241;47.830;12.972;2024-03-25T11:22:53;16.50;68.20
10390;DHT22;5241;47.830;12.972;2024-03-25T11:25:20;16.30;70.50
10390;DHT22;5241;47.830;12.972;2024-03-25T11:27:47;17.80;66.10
10390;DHT22;5241;47.830;12.972;2024-03-25T11:30:14;18.40;60.00
10390;DHT22;5241;47.830;12.972;2024-03-25T11:35:10;18.60;59.40
10390;DHT22;5241;47.830;12.972;2024-03-25T11:37:42;17.30;59.70
10390;DHT22;5241;47.830;12.972;2024-03-25T11:40:09;15.70;64.90
10390;DHT22;5241;47.830;12.972;2024-03-25T11:42:42;15.20;67.30
10390;DHT22;5241;47.830;12.972;2024-03-25T11:45:18;14.40;68.20
10390;DHT22;5241;47.830;12.972;2024-03-25T11:47:44;14.60;67.30
10390;DHT22;5241;47.830;12.972;2024-03-25T11:50:13;15.20;65.00
10390;DHT22;5241;47.830;12.972;2024-03-25T11:52:39;14.50;62.80
10390;DHT22;5241;47.830;12.972;2024-03-25T11:55:05;13.60;70.40
10390;DHT22;5241;47.830;12.972;2024-03-25T11:57:31;12.50;73.80
10390;DHT22;5241;47.830;12.972;2024-03-25T11:59:58;12.00;74.90
10390;DHT22;5241;47.830;12.972;2024-03-25T12:02:25;11.50;76.70
10390;DHT22;5241;47.830;12.972;2024-03-25T12:04:51;11.20;81.10
10390;DHT22;5241;47.830;12.972;2024-03-25T12:07:16;11.30;77.30
10390;DHT22;5241;47.830;12.972;2024-03-25T12:09:42;10.90;80.90
10390;DHT22;5241;47.830;12.972;2024-03-25T12:12:27;11.00;84.60
10390;DHT22;5241;47.830;12.972;2024-03-25T12:14:53;11.70;81.10
10390;DHT22;5241;47.830;12.972;2024-03-25T12:17:19;13.70;77.40
10390;DHT22;5241;47.830;12.972;2024-03-25T12:20:02;15.80;68.00
10390;DHT22;5241;47.830;12.972;2024-03-25T12:22:30;16.80;65.90
10390;DHT22;5241;47.830;12.972;2024-03-25T12:25:00;15.10;68.50
10390;DHT22;5241;47.830;12.972;2024-03-25T12:27:28;14.10;70.90
10390;DHT22;5241;47.830;12.972;2024-03-25T12:30:01;15.60;66.10
10390;DHT22;5241;47.830;12.972;2024-03-25T12:32:44;16.50;64.70
10390;DHT22;5241;47.830;12.972;2024-03-25T12:35:12;16.20;63.40
10390;DHT22;5241;47.830;12.972;2024-03-25T12:37:42;16.80;60.50
10390;DHT22;5241;47.830;12.972;2024-03-25T12:40:09;17.30;59.20
10390;DHT22;5241;47.830;12.972;2024-03-25T12:42:36;17.60;58.30
10390;DHT22;5241;47.830;12.972;2024-03-25T12:45:02;18.30;56.80
10390;DHT22;5241;47.830;12.972;2024-03-25T12:47:29;17.70;57.50
10390;DHT22;5241;47.830;12.972;2024-03-25T12:49:55;18.70;56.60
10390;DHT22;5241;47.830;12.972;2024-03-25T12:52:21;19.30;55.20
10390;DHT22;5241;47.830;12.972;2024-03-25T12:54:46;19.40;52.40
10390;DHT22;5241;47.830;12.972;2024-03-25T12:57:12;18.90;53.50
10390;DHT22;5241;47.830;12.972;2024-03-25T12:59:38;17.60;55.50
10390;DHT22;5241;47.830;12.972;2024-03-25T13:02:03;16.40;58.30
10390;DHT22;5241;47.830;12.972;2024-03-25T13:04:29;16.70;57.50
10390;DHT22;5241;47.830;12.972;2024-03-25T13:06:54;17.80;54.90
10390;DHT22;5241;47.830;12.972;2024-03-25T13:09:20;18.10;53.90
10390;DHT22;5241;47.830;12.972;2024-03-25T13:11:45;17.70;54.80
10390;DHT22;5241;47.830;12.972;2024-03-25T13:14:12;17.80;54.70
10390;DHT22;5241;47.830;12.972;2024-03-25T13:16:38;18.20;55.20
10390;DHT22;5241;47.830;12.972;2024-03-25T13:19:04;18.90;53.60
10390;DHT22;5241;47.830;12.972;2024-03-25T13:21:30;19.50;53.00
10390;DHT22;5241;47.830;12.972;2024-03-25T13:23:56;19.80;51.30
10390;DHT22;5241;47.830;12.972;2024-03-25T13:26:21;20.40;49.90
10390;DHT22;5241;47.830;12.972;2024-03-25T13:28:47;20.40;49.70
10390;DHT22;5241;47.830;12.972;2024-03-25T13:31:13;20.10;49.60
10390;DHT22;5241;47.830;12.972;2024-03-25T13:33:39;19.10;52.20
10390;DHT22;5241;47.830;12.972;2024-03-25T13:36:05;19.30;51.30
10390;DHT22;5241;47.830;12.972;2024-03-25T13:38:32;19.90;50.00
10390;DHT22;5241;47.830;12.972;2024-03-25T13:40:59;19.40;48.50
10390;DHT22;5241;47.830;12.972;2024-03-25T13:43:24;19.50;48.90
10390;DHT22;5241;47.830;12.972;2024-03-25T13:45:50;19.00;51.80
10390;DHT22;5241;47.830;12.972;2024-03-25T13:48:16;18.30;52.80
10390;DHT22;5241;47.830;12.972;2024-03-25T13:50:42;19.20;51.00
10390;DHT22;5241;47.830;12.972;2024-03-25T13:53:08;20.10;49.60
10390;DHT22;5241;47.830;12.972;2024-03-25T13:55:34;19.10;49.40
10390;DHT22;5241;47.830;12.972;2024-03-25T13:57:59;19.30;49.20
10390;DHT22;5241;47.830;12.972;2024-03-25T14:00:25;19.80;47.00
10390;DHT22;5241;47.830;12.972;2024-03-25T14:02:56;19.70;48.90
10390;DHT22;5241;47.830;12.972;2024-03-25T14:05:22;19.90;49.40
10390;DHT22;5241;47.830;12.972;2024-03-25T14:07:50;18.90;50.70
10390;DHT22;5241;47.830;12.972;2024-03-25T14:10:16;19.40;47.60
10390;DHT22;5241;47.830;12.972;2024-03-25T14:12:42;18.50;47.80
10390;DHT22;5241;47.830;12.972;2024-03-25T14:15:08;18.00;50.30
10390;DHT22;5241;47.830;12.972;2024-03-25T14:17:33;18.90;49.30
10390;DHT22;5241;47.830;12.972;2024-03-25T14:19:59;18.80;49.50
10390;DHT22;5241;47.830;12.972;2024-03-25T14:22:25;19.50;51.20
10390;DHT22;5241;47.830;12.972;2024-03-25T14:24:51;20.20;47.00
10390;DHT22;5241;47.830;12.972;2024-03-25T14:27:22;20.60;48.10
10390;DHT22;5241;47.830;12.972;2024-03-25T14:29:47;20.30;47.60
10390;DHT22;5241;47.830;12.972;2024-03-25T14:32:13;20.30;46.00
10390;DHT22;5241;47.830;12.972;2024-03-25T14:34:38;19.30;48.00
10390;DHT22;5241;47.830;12.972;2024-03-25T14:37:04;19.30;47.60
10390;DHT22;5241;47.830;12.972;2024-03-25T14:39:30;18.40;51.00
10390;DHT22;5241;47.830;12.972;2024-03-25T14:41:56;16.90;53.80
10390;DHT22;5241;47.830;12.972;2024-03-25T14:44:22;15.90;54.40
10390;DHT22;5241;47.830;12.972;2024-03-25T14:46:47;14.50;57.70
10390;DHT22;5241;47.830;12.972;2024-03-25T14:49:13;14.30;59.50
10390;DHT22;5241;47.830;12.972;2024-03-25T14:51:38;14.60;59.40
10390;DHT22;5241;47.830;12.972;2024-03-25T14:54:05;14.50;60.70
10390;DHT22;5241;47.830;12.972;2024-03-25T14:56:31;14.90;58.50
10390;DHT22;5241;47.830;12.972;2024-03-25T14:58:56;15.60;56.60
10390;DHT22;5241;47.830;12.972;2024-03-25T15:01:22;16.50;55.60
10390;DHT22;5241;47.830;12.972;2024-03-25T15:03:47;17.20;53.20
10390;DHT22;5241;47.830;12.972;2024-03-25T15:06:13;17.10;53.00
10390;DHT22;5241;47.830;12.972;2024-03-25T15:08:38;17.80;51.70
10390;DHT22;5241;47.830;12.972;2024-03-25T15:11:05;17.80;51.00
10390;DHT22;5241;47.830;12.972;2024-03-25T15:13:31;17.60;52.00
10390;DHT22;5241;47.830;12.972;2024-03-25T15:15:57;17.10;52.70
10390;DHT22;5241;47.830;12.972;2024-03-25T15:18:22;16.70;53.60
10390;DHT22;5241;47.830;12.972;2024-03-25T15:21:02;16.50;54.00
10390;DHT22;5241;47.830;12.972;2024-03-25T15:23:28;16.00;55.00
10390;DHT22;5241;47.830;12.972;2024-03-25T15:25:54;15.60;56.00
10390;DHT22;5241;47.830;12.972;2024-03-25T15:28:20;14.40;57.50
10390;DHT22;5241;47.830;12.972;2024-03-25T15:30:46;13.20;60.00
10390;DHT22;5241;47.830;12.972;2024-03-25T15:33:13;12.50;62.60
10390;DHT22;5241;47.830;12.972;2024-03-25T15:35:39;11.90;65.70
10390;DHT22;5241;47.830;12.972;2024-03-25T15:38:04;11.60;67.00
10390;DHT22;5241;47.830;12.972;2024-03-25T15:40:30;11.30;67.50
10390;DHT22;5241;47.830;12.972;2024-03-25T15:42:55;11.00;68.40